createdAt,value
2023-01-19T00:01:34.300Z,2.70
2023-01-19T00:04:02.498Z,2.70
2023-01-19T00:06:31.566Z,2.83
2023-01-19T00:08:59.903Z,3.20
2023-01-19T00:11:28.180Z,2.53
2023-01-19T00:13:56.422Z,3.10
2023-01-19T00:16:26.094Z,2.93
2023-01-19T00:18:55.633Z,2.83
2023-01-19T00:21:24.679Z,2.70
2023-01-19T00:23:53.025Z,2.87
2023-01-19T00:26:22.857Z,3.07
2023-01-19T00:28:53.024Z,2.73
2023-01-19T00:31:23.798Z,2.50
2023-01-19T00:33:53.417Z,2.40
2023-01-19T00:36:21.681Z,3.10
2023-01-19T00:38:49.894Z,3.07
2023-01-19T00:41:18.314Z,3.27
2023-01-19T00:43:45.484Z,2.60
2023-01-19T00:46:13.742Z,2.70
2023-01-19T00:48:41.952Z,3.03
2023-01-19T00:51:11.530Z,2.90
2023-01-19T00:53:39.711Z,2.97
2023-01-19T00:56:08.758Z,2.87
2023-01-19T00:58:37.055Z,2.87
2023-01-19T01:01:07.196Z,2.30
2023-01-19T01:03:35.470Z,3.23
2023-01-19T01:06:07.029Z,2.90
2023-01-19T01:08:36.843Z,3.22
2023-01-19T01:11:05.224Z,3.13
2023-01-19T01:13:33.845Z,2.93
2023-01-19T01:16:02.256Z,2.67
2023-01-19T01:18:30.581Z,3.17
2023-01-19T01:21:02.779Z,2.60
2023-01-19T01:23:31.031Z,2.20
2023-01-19T01:26:00.684Z,3.27
2023-01-19T01:28:28.885Z,3.20
2023-01-19T01:30:57.912Z,2.90
2023-01-19T01:33:41.302Z,2.90
2023-01-19T01:36:11.323Z,3.03
2023-01-19T01:38:39.544Z,3.57
2023-01-19T01:41:10.098Z,3.43
2023-01-19T01:43:47.302Z,3.87
2023-01-19T01:46:17.295Z,3.43
2023-01-19T01:48:51.937Z,3.40
2023-01-19T01:51:26.390Z,3.20
2023-01-19T01:54:18.326Z,2.80
2023-01-19T01:59:26.026Z,2.73
2023-01-19T02:02:13.303Z,3.10
2023-01-19T02:04:44.699Z,3.40
2023-01-19T02:07:33.408Z,2.80
2023-01-19T02:10:19.145Z,3.20
2023-01-19T02:13:06.764Z,2.63
2023-01-19T02:15:35.061Z,3.23
2023-01-19T02:18:03.340Z,3.90
2023-01-19T02:20:36.608Z,4.80
2023-01-19T02:23:08.893Z,5.37
2023-01-19T02:25:40.618Z,5.63
2023-01-19T02:28:09.077Z,4.70
2023-01-19T02:30:40.641Z,5.47
2023-01-19T02:33:09.110Z,4.82
2023-01-19T02:35:39.704Z,5.10
2023-01-19T02:38:09.998Z,4.90
2023-01-19T02:40:40.964Z,5.27
2023-01-19T02:43:09.758Z,5.70
2023-01-19T02:45:39.240Z,6.30
2023-01-19T02:48:07.773Z,6.03
2023-01-19T02:50:41.928Z,5.83
2023-01-19T02:53:44.186Z,5.30
2023-01-19T02:56:31.037Z,5.73
2023-01-19T02:59:05.874Z,5.70
2023-01-19T03:01:46.832Z,5.00
2023-01-19T03:04:25.573Z,5.18
2023-01-19T03:07:01.301Z,5.10
2023-01-19T03:09:33.736Z,5.33
2023-01-19T03:12:08.176Z,5.23
2023-01-19T03:14:43.647Z,5.17
2023-01-19T03:17:13.070Z,5.47
2023-01-19T03:19:43.294Z,4.87
2023-01-19T03:22:14.786Z,5.20
2023-01-19T03:24:45.837Z,4.82
2023-01-19T03:27:19.969Z,4.70
2023-01-19T03:29:52.035Z,4.57
2023-01-19T03:32:23.553Z,4.30
2023-01-19T03:34:54.084Z,4.72
2023-01-19T03:37:24.141Z,5.00
2023-01-19T03:39:52.295Z,5.57
2023-01-19T03:42:22.250Z,5.10
2023-01-19T03:44:51.330Z,5.53
2023-01-19T03:47:20.718Z,5.73
2023-01-19T03:49:50.915Z,5.33
2023-01-19T03:52:19.121Z,5.13
2023-01-19T03:54:48.289Z,5.63
2023-01-19T03:57:16.655Z,5.60
2023-01-19T03:59:46.245Z,4.77
2023-01-19T04:02:14.947Z,4.90
2023-01-19T04:04:43.411Z,4.87
2023-01-19T04:07:12.086Z,5.27
2023-01-19T04:09:40.559Z,5.07
2023-01-19T04:12:09.293Z,4.37
2023-01-19T04:14:37.559Z,3.97
2023-01-19T04:17:07.176Z,4.20
2023-01-19T04:19:35.455Z,3.90
2023-01-19T04:22:04.105Z,4.00
2023-01-19T04:24:32.283Z,4.10
2023-01-19T04:27:00.804Z,3.80
2023-01-19T04:29:29.021Z,4.20
2023-01-19T04:31:57.544Z,3.50
2023-01-19T04:34:27.192Z,3.90
2023-01-19T04:36:56.043Z,3.97
2023-01-19T04:39:24.369Z,4.33
2023-01-19T04:41:52.941Z,3.50
2023-01-19T04:44:21.122Z,3.40
2023-01-19T04:46:49.371Z,3.70
2023-01-19T04:49:17.570Z,4.00
2023-01-19T04:51:47.382Z,3.83
2023-01-19T04:54:15.646Z,4.13
2023-01-19T04:56:43.862Z,4.27
2023-01-19T04:59:12.477Z,3.90
2023-01-19T05:01:40.813Z,3.70
2023-01-19T05:04:09.257Z,3.73
2023-01-19T05:06:37.492Z,3.97
2023-01-19T05:09:09.101Z,4.37
2023-01-19T05:14:05.391Z,3.70
2023-01-19T05:16:34.684Z,3.93
2023-01-19T05:19:02.905Z,3.90
2023-01-19T05:21:31.131Z,3.87
2023-01-19T05:23:59.343Z,3.93
2023-01-19T05:26:29.000Z,4.20
2023-01-19T05:28:57.408Z,3.93
2023-01-19T05:31:25.761Z,4.63
2023-01-19T05:33:54.111Z,4.10
2023-01-19T05:36:22.426Z,3.67
2023-01-19T05:38:50.885Z,4.77
2023-01-19T05:41:19.109Z,3.90
2023-01-19T05:43:48.817Z,3.93
2023-01-19T05:46:17.084Z,4.17
2023-01-19T05:48:45.715Z,4.87
2023-01-19T05:51:13.991Z,4.13
2023-01-19T05:53:42.270Z,4.30
2023-01-19T05:56:11.837Z,4.70
2023-01-19T05:58:40.559Z,4.73
2023-01-19T06:01:11.564Z,4.70
2023-01-19T06:03:41.093Z,5.15
2023-01-19T06:06:09.548Z,4.83
2023-01-19T06:08:37.751Z,4.73
2023-01-19T06:11:07.615Z,5.27
2023-01-19T06:13:36.086Z,5.57
2023-01-19T06:16:04.951Z,5.93
2023-01-19T06:18:34.959Z,5.40
2023-01-19T06:21:05.613Z,4.13
2023-01-19T06:23:35.059Z,4.73
2023-01-19T06:26:03.990Z,5.17
2023-01-19T06:28:32.576Z,4.63
2023-01-19T06:31:01.151Z,5.03
2023-01-19T06:33:29.746Z,5.13
2023-01-19T06:35:59.535Z,4.83
2023-01-19T06:38:28.917Z,6.47
2023-01-19T06:40:58.976Z,5.63
2023-01-19T06:43:27.911Z,6.07
2023-01-19T06:45:56.926Z,5.30
2023-01-19T06:48:25.835Z,5.47
2023-01-19T06:50:54.045Z,5.57
2023-01-19T06:53:23.669Z,5.60
2023-01-19T06:55:51.961Z,4.80
2023-01-19T06:58:20.456Z,5.60
2023-01-19T07:00:50.466Z,5.47
2023-01-19T07:03:21.447Z,6.20
2023-01-19T07:05:52.965Z,6.25
2023-01-19T07:08:21.361Z,6.03
2023-01-19T07:11:25.125Z,5.63
2023-01-19T07:13:41.162Z,6.20
2023-01-19T07:16:11.424Z,5.97
2023-01-19T07:18:40.720Z,5.77
2023-01-19T07:21:09.616Z,5.77
2023-01-19T07:23:38.634Z,6.03
2023-01-19T07:26:08.428Z,5.53
2023-01-19T07:28:37.108Z,5.57
2023-01-19T07:31:06.449Z,5.83
2023-01-19T07:33:35.305Z,6.33
2023-01-19T07:36:03.568Z,6.27
2023-01-19T07:38:31.873Z,6.33
2023-01-19T07:41:03.755Z,7.00
2023-01-19T07:43:33.864Z,6.13
2023-01-19T07:46:04.220Z,5.53
2023-01-19T07:48:32.731Z,5.53
2023-01-19T07:51:02.111Z,6.07
2023-01-19T07:53:30.468Z,6.87
2023-01-19T07:55:58.940Z,6.30
2023-01-19T07:58:27.644Z,5.60
2023-01-19T08:00:57.379Z,5.63
2023-01-19T08:03:25.674Z,5.87
2023-01-19T08:05:57.112Z,5.30
2023-01-19T08:08:25.329Z,5.18
2023-01-19T08:10:54.301Z,5.50
2023-01-19T08:13:22.534Z,5.77
2023-01-19T08:15:51.913Z,6.77
2023-01-19T08:18:21.890Z,6.13
2023-01-19T08:20:50.201Z,5.80
2023-01-19T08:23:19.735Z,5.67
2023-01-19T08:25:48.062Z,6.37
2023-01-19T08:28:19.784Z,5.67
2023-01-19T08:33:25.388Z,4.63
2023-01-19T08:35:54.823Z,4.78
2023-01-19T08:38:23.116Z,4.67
2023-01-19T08:40:51.417Z,4.30
2023-01-19T08:43:19.761Z,4.87
2023-01-19T08:45:52.786Z,4.68
2023-01-19T08:48:25.129Z,4.47
2023-01-19T08:50:54.300Z,4.45
2023-01-19T08:53:23.665Z,4.38
2023-01-19T08:55:56.132Z,4.22
2023-01-19T08:58:24.590Z,3.72
2023-01-19T09:00:53.088Z,4.07
2023-01-19T09:03:22.727Z,4.07
2023-01-19T09:05:52.520Z,3.80
2023-01-19T09:08:20.734Z,3.63
2023-01-19T09:10:51.488Z,3.20
2023-01-19T09:13:21.486Z,3.13
2023-01-19T09:15:50.028Z,3.03
2023-01-19T09:18:20.410Z,3.33
2023-01-19T09:20:50.327Z,3.05
2023-01-19T09:23:22.767Z,3.20
2023-01-19T09:25:57.025Z,3.20
2023-01-19T09:28:25.657Z,4.30
2023-01-19T09:30:53.973Z,3.90
2023-01-19T09:33:22.655Z,4.00
2023-01-19T09:35:51.897Z,4.03
2023-01-19T09:38:22.472Z,3.88
2023-01-19T09:40:53.309Z,4.15
2023-01-19T09:43:32.686Z,4.47
2023-01-19T09:46:03.992Z,4.60
2023-01-19T09:48:45.854Z,4.80
2023-01-19T09:53:53.224Z,3.72
2023-01-19T09:56:22.684Z,3.92
2023-01-19T09:58:52.343Z,3.80
2023-01-19T10:01:38.073Z,4.30
2023-01-19T10:04:29.302Z,3.72
2023-01-19T10:07:11.037Z,3.70
2023-01-19T10:12:28.201Z,3.22
2023-01-19T10:15:04.122Z,3.42
2023-01-19T10:17:43.755Z,3.53
2023-01-19T10:20:18.053Z,2.95
2023-01-19T10:22:50.131Z,3.15
2023-01-19T10:25:24.682Z,3.53
2023-01-19T10:27:53.043Z,2.45
2023-01-19T10:30:24.679Z,2.70
2023-01-19T10:35:25.020Z,2.92
2023-01-19T10:37:56.167Z,3.00
2023-01-19T10:40:33.250Z,2.70
2023-01-19T10:43:01.931Z,3.42
2023-01-19T10:45:32.540Z,3.50
2023-01-19T10:48:07.324Z,3.70
2023-01-19T10:50:39.788Z,2.97
2023-01-19T10:53:18.533Z,3.30
2023-01-19T10:55:48.311Z,3.30
2023-01-19T10:58:29.676Z,3.20
2023-01-19T11:01:15.660Z,3.33
2023-01-19T11:03:44.067Z,3.78
2023-01-19T11:06:24.463Z,3.53
2023-01-19T11:08:54.280Z,3.65
2023-01-19T11:11:25.620Z,3.55
2023-01-19T11:14:11.203Z,2.67
2023-01-19T11:16:40.145Z,3.47
2023-01-19T11:19:21.635Z,3.30
2023-01-19T11:21:49.826Z,3.00
2023-01-19T11:24:18.575Z,3.42
2023-01-19T11:26:51.229Z,3.50
2023-01-19T11:29:23.645Z,3.42
2023-01-19T11:31:52.896Z,3.25
2023-01-19T11:34:27.276Z,3.50
2023-01-19T11:36:59.842Z,3.22
2023-01-19T11:39:30.241Z,3.25
2023-01-19T11:42:06.386Z,2.80
2023-01-19T11:44:37.570Z,3.30
2023-01-19T11:47:13.020Z,2.92
2023-01-19T11:49:47.875Z,2.53
2023-01-19T11:52:27.004Z,2.20
2023-01-19T11:54:58.974Z,2.25
2023-01-19T11:57:29.075Z,2.55
2023-01-19T12:00:03.441Z,2.60
2023-01-19T12:02:44.375Z,2.33
2023-01-19T12:05:17.052Z,2.57
2023-01-19T12:07:46.548Z,2.58
2023-01-19T12:10:24.066Z,2.47
2023-01-19T12:12:54.737Z,2.80
2023-01-19T12:15:31.366Z,2.63
2023-01-19T12:18:02.232Z,2.90
2023-01-19T12:20:35.424Z,3.28
2023-01-19T12:23:16.156Z,3.40
2023-01-19T12:25:55.364Z,2.35
2023-01-19T12:28:30.329Z,2.83
2023-01-19T12:31:00.102Z,2.30
2023-01-19T12:33:36.942Z,2.42
2023-01-19T12:36:11.255Z,4.20
2023-01-19T12:38:45.346Z,2.80
2023-01-19T12:41:30.164Z,2.47
2023-01-19T12:44:23.156Z,2.53
2023-01-19T12:46:57.382Z,2.45
2023-01-19T12:49:29.043Z,2.28
2023-01-19T12:54:43.106Z,2.70
2023-01-19T12:57:28.130Z,2.40
2023-01-19T13:00:02.794Z,3.00
2023-01-19T13:02:53.466Z,4.28
2023-01-19T13:05:26.184Z,2.60
2023-01-19T13:08:16.971Z,2.67
2023-01-19T13:11:10.688Z,2.17
2023-01-19T13:13:40.102Z,2.63
2023-01-19T13:16:41.375Z,2.67
2023-01-19T13:19:18.895Z,2.50
2023-01-19T13:21:49.537Z,2.65
2023-01-19T13:24:22.427Z,2.90
2023-01-19T13:27:03.326Z,2.90
2023-01-19T13:29:34.981Z,3.03
2023-01-19T13:32:05.575Z,2.60
2023-01-19T13:34:42.164Z,2.70
2023-01-19T13:37:17.126Z,3.00
2023-01-19T13:39:49.294Z,2.15
2023-01-19T13:42:29.282Z,2.15
2023-01-19T13:45:02.014Z,1.55
2023-01-19T13:47:39.671Z,2.15
2023-01-19T13:50:21.388Z,2.70
2023-01-19T13:52:51.421Z,2.15
2023-01-19T13:55:20.622Z,2.80
2023-01-19T13:57:49.798Z,2.33
2023-01-19T14:00:20.467Z,2.42
2023-01-19T14:03:00.168Z,4.50
2023-01-19T14:05:32.035Z,2.17
2023-01-19T14:08:06.554Z,2.30
2023-01-19T14:10:36.292Z,2.35
2023-01-19T14:13:06.282Z,1.98
2023-01-19T14:15:36.104Z,2.17
2023-01-19T14:18:25.532Z,2.33
2023-01-19T14:20:56.898Z,2.28
2023-01-19T14:23:49.844Z,1.83
2023-01-19T14:26:49.509Z,1.90
2023-01-19T14:29:23.489Z,1.88
2023-01-19T14:31:53.920Z,1.85
2023-01-19T14:34:37.255Z,1.83
2023-01-19T14:37:16.292Z,2.42
2023-01-19T14:39:47.529Z,2.80
2023-01-19T14:42:19.937Z,2.30
2023-01-19T14:44:51.111Z,2.55
2023-01-19T14:47:35.603Z,2.30
2023-01-19T14:50:20.924Z,2.75
2023-01-19T14:52:56.458Z,2.55
2023-01-19T14:55:36.215Z,3.00
2023-01-19T14:58:12.153Z,2.58
2023-01-19T15:00:40.861Z,2.70
2023-01-19T15:03:10.017Z,2.10
2023-01-19T15:05:38.810Z,2.30
2023-01-19T15:08:09.354Z,1.75
2023-01-19T15:10:37.860Z,2.08
2023-01-19T15:13:06.079Z,2.30
2023-01-19T15:15:35.939Z,2.17
2023-01-19T15:18:05.941Z,2.45
2023-01-19T15:20:34.182Z,2.03
2023-01-19T15:23:02.380Z,1.90
2023-01-19T15:25:32.012Z,2.25
2023-01-19T15:28:00.994Z,2.28
2023-01-19T15:30:31.141Z,2.25
2023-01-19T15:33:00.059Z,2.45
2023-01-19T15:35:28.254Z,2.57
2023-01-19T15:37:56.423Z,2.03
2023-01-19T15:40:24.829Z,3.13
2023-01-19T15:42:54.458Z,3.45
2023-01-19T15:45:39.422Z,2.80
2023-01-19T15:48:09.626Z,3.45
2023-01-19T15:50:40.022Z,8.50
2023-01-19T15:53:08.929Z,4.73
2023-01-19T15:55:37.124Z,4.70
2023-01-19T15:58:07.501Z,5.03
2023-01-19T16:00:36.925Z,4.03
2023-01-19T16:03:05.507Z,4.77
2023-01-19T16:05:42.645Z,5.80
2023-01-19T16:08:11.752Z,5.57
2023-01-19T16:10:40.379Z,5.40
2023-01-19T16:13:10.601Z,4.97
2023-01-19T16:15:40.219Z,4.10
2023-01-19T16:18:08.524Z,4.07
2023-01-19T16:20:36.756Z,4.43
2023-01-19T16:23:20.339Z,3.57
2023-01-19T16:25:57.326Z,4.60
2023-01-19T16:28:27.910Z,3.50
2023-01-19T16:30:56.190Z,3.50
2023-01-19T16:33:24.657Z,3.30
2023-01-19T16:35:53.018Z,3.30
2023-01-19T16:38:22.753Z,3.03
2023-01-19T16:40:51.374Z,3.03
2023-01-19T16:43:19.725Z,3.50
2023-01-19T16:46:00.427Z,2.97
2023-01-19T16:48:29.240Z,3.80
2023-01-19T16:51:02.998Z,2.87
2023-01-19T16:53:31.988Z,3.23
2023-01-19T16:56:00.228Z,2.80
2023-01-19T16:58:28.580Z,3.00
2023-01-19T17:00:58.288Z,2.87
2023-01-19T17:03:27.116Z,2.93
2023-01-19T17:05:55.426Z,3.70
2023-01-19T17:08:23.666Z,2.80
2023-01-19T17:10:51.905Z,2.60
2023-01-19T17:13:20.101Z,3.40
2023-01-19T17:15:48.258Z,3.93
2023-01-19T17:18:17.980Z,3.20
2023-01-19T17:20:46.177Z,2.63
2023-01-19T17:23:14.640Z,2.97
2023-01-19T17:25:42.875Z,3.03
2023-01-19T17:28:11.048Z,3.13
2023-01-19T17:30:39.390Z,3.30
2023-01-19T17:33:07.590Z,3.00
2023-01-19T17:35:37.235Z,2.93
2023-01-19T17:38:05.502Z,3.10
2023-01-19T17:40:33.784Z,3.13
2023-01-19T17:43:02.102Z,2.90
2023-01-19T17:45:30.295Z,3.10
2023-01-19T17:47:58.522Z,2.90
2023-01-19T17:50:26.825Z,2.70
2023-01-19T17:52:56.382Z,3.30
2023-01-19T17:55:24.670Z,2.70
2023-01-19T17:57:52.885Z,2.93
2023-01-19T18:00:21.698Z,2.83
2023-01-19T18:02:51.712Z,3.00
2023-01-19T18:05:20.224Z,3.27
2023-01-19T18:07:48.805Z,3.10
2023-01-19T18:10:19.110Z,2.90
2023-01-19T18:12:47.312Z,2.77
2023-01-19T18:15:16.993Z,2.80
2023-01-19T18:17:45.309Z,2.80
2023-01-19T18:20:14.039Z,2.93
2023-01-19T18:22:42.594Z,2.63
2023-01-19T18:25:11.123Z,2.70
2023-01-19T18:27:40.728Z,2.67
2023-01-19T18:30:10.281Z,3.20
2023-01-19T18:32:38.678Z,2.67
2023-01-19T18:35:08.146Z,2.40
2023-01-19T18:37:36.405Z,2.40
2023-01-19T18:40:05.254Z,2.43
2023-01-19T18:42:35.328Z,2.70
2023-01-19T18:45:05.262Z,2.40
2023-01-19T18:47:34.729Z,6.00
2023-01-19T18:50:02.946Z,5.93
2023-01-19T18:52:32.368Z,2.63
2023-01-19T18:55:00.828Z,2.07
2023-01-19T18:57:29.060Z,2.20
2023-01-19T18:59:57.265Z,2.13
2023-01-19T19:02:27.154Z,2.10
2023-01-19T19:04:55.641Z,2.30
2023-01-19T19:07:39.276Z,1.90
2023-01-19T19:10:08.337Z,2.13
2023-01-19T19:12:36.779Z,2.20
2023-01-19T19:15:05.398Z,1.83
2023-01-19T19:17:35.961Z,2.30
2023-01-19T19:20:04.583Z,1.67
2023-01-19T19:22:33.248Z,2.17
2023-01-19T19:25:01.428Z,1.90
2023-01-19T19:27:29.643Z,2.33
2023-01-19T19:29:57.934Z,2.00
2023-01-19T19:32:26.174Z,2.10
2023-01-19T19:34:58.848Z,1.47
2023-01-19T19:37:27.115Z,1.30
2023-01-19T19:39:55.818Z,2.10
2023-01-19T19:42:24.257Z,1.50
2023-01-19T19:44:52.900Z,2.40
2023-01-19T19:47:21.112Z,1.80
2023-01-19T19:49:49.298Z,1.50
2023-01-19T19:52:19.193Z,1.90
2023-01-19T19:54:49.585Z,2.00
2023-01-19T19:57:17.850Z,1.33
2023-01-19T19:59:46.098Z,1.63
2023-01-19T20:02:14.519Z,0.63
2023-01-19T20:04:43.206Z,2.00
2023-01-19T20:07:11.461Z,1.57
2023-01-19T20:09:41.088Z,1.10
2023-01-19T20:12:09.729Z,1.70
2023-01-19T20:14:38.094Z,1.80
2023-01-19T20:17:06.306Z,1.30
2023-01-19T20:19:34.526Z,1.70
2023-01-19T20:22:02.746Z,1.40
2023-01-19T20:24:31.068Z,1.60
2023-01-19T20:27:00.636Z,1.50
2023-01-19T20:29:28.982Z,1.30
2023-01-19T20:31:57.962Z,1.50
2023-01-19T20:34:28.288Z,2.07
2023-01-19T20:36:57.115Z,1.50
2023-01-19T20:39:26.019Z,1.53
2023-01-19T20:41:54.465Z,1.03
2023-01-19T20:44:26.070Z,1.50
2023-01-19T20:49:23.409Z,1.10
2023-01-19T20:51:52.221Z,1.37
2023-01-19T20:54:24.649Z,1.63
2023-01-19T20:56:52.964Z,1.80
2023-01-19T20:59:21.197Z,1.90
2023-01-19T21:01:51.466Z,2.10
2023-01-19T21:04:20.123Z,1.20
2023-01-19T21:06:48.474Z,1.23
2023-01-19T21:09:18.566Z,1.70
2023-01-19T21:11:46.886Z,1.23
2023-01-19T21:14:16.128Z,1.40
2023-01-19T21:16:44.597Z,1.43
2023-01-19T21:19:14.499Z,1.20
2023-01-19T21:21:42.852Z,1.33
2023-01-19T21:24:12.191Z,1.80
2023-01-19T21:26:41.859Z,0.77
2023-01-19T21:29:13.470Z,0.83
2023-01-19T21:34:10.962Z,1.47
2023-01-19T21:36:40.890Z,1.37
2023-01-19T21:39:09.316Z,1.30
2023-01-19T21:41:39.837Z,1.40
2023-01-19T21:44:08.129Z,1.33
2023-01-19T21:46:36.438Z,1.57
2023-01-19T21:49:06.444Z,1.80
2023-01-19T21:51:36.941Z,1.40
2023-01-19T21:54:07.959Z,1.00
2023-01-19T21:56:38.046Z,1.40
2023-01-19T21:59:07.555Z,1.23
2023-01-19T22:01:36.449Z,1.60
2023-01-19T22:04:05.934Z,1.70
2023-01-19T22:06:34.392Z,1.90
2023-01-19T22:09:02.850Z,1.70
2023-01-19T22:11:32.579Z,1.33
2023-01-19T22:14:01.037Z,0.77
2023-01-19T22:16:30.755Z,1.27
2023-01-19T22:19:01.253Z,0.90
2023-01-19T22:21:32.058Z,1.67
2023-01-19T22:24:01.647Z,1.42
2023-01-19T22:26:34.127Z,1.30
2023-01-19T22:29:03.385Z,1.23
2023-01-19T22:31:31.805Z,0.87
2023-01-19T22:34:00.401Z,1.23
2023-01-19T22:36:30.115Z,1.00
2023-01-19T22:39:00.009Z,1.17
2023-01-19T22:41:30.513Z,1.40
2023-01-19T22:44:02.639Z,1.33
2023-01-19T22:46:33.560Z,1.23
2023-01-19T22:49:02.313Z,1.40
2023-01-19T22:51:34.633Z,0.90
2023-01-19T22:54:03.325Z,1.03
2023-01-19T22:56:33.320Z,0.53
2023-01-19T22:59:03.434Z,1.20
2023-01-19T23:01:33.667Z,1.27
2023-01-19T23:04:04.311Z,0.97
2023-01-19T23:06:34.072Z,0.77
2023-01-19T23:09:04.155Z,1.43
2023-01-19T23:11:36.071Z,1.10
2023-01-19T23:14:07.024Z,0.60
2023-01-19T23:16:35.776Z,0.80
2023-01-19T23:19:04.791Z,1.20
2023-01-19T23:21:34.113Z,1.10
2023-01-19T23:24:04.054Z,1.10
2023-01-19T23:26:38.087Z,1.00
2023-01-19T23:29:10.630Z,1.10
2023-01-19T23:31:41.474Z,1.20
2023-01-19T23:34:11.294Z,0.82
2023-01-19T23:36:41.484Z,1.30
2023-01-19T23:39:14.788Z,1.17
2023-01-19T23:41:43.186Z,0.73
2023-01-19T23:44:13.139Z,1.27
2023-01-19T23:46:41.657Z,1.17
2023-01-19T23:49:09.924Z,1.00
2023-01-19T23:51:38.212Z,1.00
2023-01-19T23:54:06.560Z,1.40
2023-01-19T23:56:36.329Z,1.20
2023-01-19T23:59:07.003Z,1.00
